Hlavní strana
METAR-TAF:

METAR-TAF

Letiště :

Donau

Neuburg, Německo

zeměpisná šířka: 48-43N, zeměpisná délka: 011-13E, výška: 380 m

Aktuální stav počasí

Zpráva byla vytvořena před 40 minutami, v 10:20 UTC
Západní vítr 7 kt
Teplota 26°C
Vlhkost vzduchu 42%
Tlak 1020 hPa
Viditelnost 10 km a více
Skoro jasno ve výšce 9000 ft

METAR: ETSN 201020Z 26007KT 9999 FEW090 26/12 Q1020 BLU+BLU+

Čas: 13:00 (11:00 UTC)

Předpověď počasí

Zpráva byla vytvořena před 40 minutami, v 10:20 UTC
Předpověď platná od 20 v 11 UTC do 20 v 20 UTC
Západní vítr 8 kt
Viditelnost 10 km a více
Skoro jasno ve výšce 30000 ft

TAF: ETSN 201020Z 2011/2020 27008KT 9999 NSW FEW300 BY ETGL

Stav a předpovědi počasí z více než 4 000 letišť (zprávy METAR a TAF).

Červené a žluté tečky na mapě představují dostupné meteorologické stanice.

Když kurzor umístíte na tečku, zobrazí se název stanice.

Pak kliknutím zobrazíte stav a předpověď počasí.

Chcete-li změnit mapu, kliknutím na zelené tlačítko se znaménkem +mapu přiblížíte, kliknutím na zelené tlačítko se znaménkem – mapu oddálíte a kliknutím na zelené šipky přejdete na sousední mapy.


METAR-TAF: